Portada
METAR-TAF:

METAR-TAF

Aeroports :

Aeroflex-Andover Airport

Andover, Nova Jersey, Estats Units d'Amèrica

latitud: 41-00-32N, longitud: 074-44-12W, altitud: 177 m

Observació

L'informe es va fer fa 11 minuts, a les 22:54 UTC
Vent 3 kt amb direcció variable
Temperatura 19°C
Humitat 60%
Pressió 1022 hPa

METAR: K12N 242254Z AUTO VRB03KT 19/11 A3019 RMK AO1 SLP222 T01940111

Hora: 19:05 (23:05 UTC)


TAF: manca

Observacions i pronòstics meteorològics de més de 4000 aeroports (METAR i TAF).

Les estacions disponibles són els punts grocs i vermells al mapa.

Posi el ratolí al punt desitjat per veure el nom de l'estació.

Feu clic per veure les observacions i els pronòstics meteorològics.

Per canviar el mapa: feu clic els botons verds amb una creu de color negre per apropar; al botó verd amb un guió per allunyar la imatge; o en les fletxes verdes per a mapes adjacents.


METAR-TAF: